Thursday, March 30, 2017, 2:26 PM EDT

KRIC, Richmond International Airport

Location: Sandston, VA, United States Lat: 37.517
Local Time: 2:26 PM EDT (18:26 GMT) Lon: -77.317
Time Zone: US/Eastern Elev: 167 ft

Show me the last for .
Show Decoded

2017-03-30 13:54 METAR KRIC 301754Z 13008KT 10SM OVC048 14/04 A3016 RMK AO2 SLP218 T01390039
                 10139 20083 58024 =
2017-03-30 12:54 METAR KRIC 301654Z 16006KT 10SM OVC049 13/04 A3019 RMK AO2 SLP229 T01280039 =
2017-03-30 11:54 METAR KRIC 301554Z 10009KT 10SM OVC050 12/04 A3022 RMK AO2 SLP236 T01220044 =
2017-03-30 10:54 METAR KRIC 301454Z 10007KT 10SM BKN050 OVC065 11/03 A3023 RMK AO2 SLP242
                 T01060033 58000 =
2017-03-30 09:54 METAR KRIC 301354Z 07008KT 10SM OVC055 10/03 A3024 RMK AO2 SLP243 T01000028 =
2017-03-30 08:54 METAR KRIC 301254Z 07010KT 10SM OVC060 09/02 A3023 RMK AO2 SLP242 T00890022 =
2017-03-30 07:54 METAR KRIC 301154Z 06007KT 10SM OVC060 08/03 A3023 RMK AO2 SLP243 T00830033
                 10083 20072 53021 =
2017-03-30 06:54 METAR KRIC 301054Z 06008KT 10SM BKN060 08/06 A3021 RMK AO2 SLP233 T00780056 =
2017-03-30 05:54 METAR KRIC 300954Z 02004KT 10SM BKN060 08/07 A3019 RMK AO2 SLP229 T00780067 =
2017-03-30 04:54 METAR KRIC 300854Z 02003KT 10SM SCT080 07/06 A3017 RMK AO2 SLP222 T00720061
                 58000 =
2017-03-30 03:54 METAR KRIC 300754Z 03003KT 10SM BKN080 08/07 A3017 RMK AO2 SLP221 T00830067 =
2017-03-30 02:54 METAR KRIC 300654Z 00000KT 10SM CLR 08/06 A3018 RMK AO2 SLP223 T00830056 =
2017-03-30 01:54 METAR KRIC 300554Z 00000KT 10SM FEW070 08/06 A3017 RMK AO2 SLP222 T00780056
                 10172 20072 53002 =
2017-03-30 00:54 METAR KRIC 300454Z 07003KT 10SM CLR 09/06 A3017 RMK AO2 SLP221 T00890061
                 402060089 =
2017-03-29 23:54 METAR KRIC 300354Z 00000KT 10SM CLR 11/07 A3016 RMK AO2 SLP218 T01060067 =
2017-03-29 22:54 METAR KRIC 300254Z 00000KT 10SM CLR 12/07 A3017 RMK AO2 SLP220 T01170072 51021 =
2017-03-29 21:54 METAR KRIC 300154Z 11006KT 10SM SCT300 12/07 A3016 RMK AO2 SLP217 T01170072 =
2017-03-29 20:54 METAR KRIC 300054Z 12010KT 10SM BKN300 14/07 A3013 RMK AO2 SLP206 T01390067 =
2017-03-29 19:54 METAR KRIC 292354Z 07004KT 10SM FEW060 BKN300 17/06 A3011 RMK AO2 SLP199
                 T01720056 10206 20172 53015 =
2017-03-29 18:54 METAR KRIC 292254Z 05007KT 10SM FEW060 BKN300 18/06 A3009 RMK AO2 SLP193
                 T01830061 =
2017-03-29 17:54 METAR KRIC 292154Z VRB06KT 10SM FEW049 SCT300 20/06 A3007 RMK AO2 SLP188
                 T02000061 =
2017-03-29 16:54 METAR KRIC 292054Z VRB05KT 10SM FEW050 SCT300 21/06 A3006 RMK AO2 SLP183
                 T02060061 56010 =
2017-03-29 15:54 METAR KRIC 291954Z 31009KT 10SM SCT047 21/07 A3007 RMK AO2 SLP184 T02060072 =
2017-03-29 14:54 METAR KRIC 291854Z VRB05KT 10SM SCT045 19/08 A3007 RMK AO2 SLP188 T01940083 =

Support USWX by starting your Amazon purchase here.